Volgoneft-212 — UBQB-2 — position and weather

sailwx.info

Track history (hours):
 
Tides and Currents Weather Stations Pressure Air Temp Water Temp Dewpoint Dewpoint Depression Visibility Wind Speed Wind Dir Waves Ship Positions

Volgoneft-212

Last reported at 2017-Oct-14 04:32 UTC. Time now 2017-Oct-18 03:45 UTC.
Position N 45°33' E 036°53'.

Length 136 m; draft 2.6 m.

Type: Pilot. MMSI: 273333930.

Date/timePositionNaut miles runAvg speedWind from/ knotsBaromVisibWave heightAir tempDewpointWater temp
2017-Oct-14 04:32N 45°33' E 036°53'2 5.1
2017-Oct-14 04:06N 45°31' E 036°54'1 0.6
2017-Oct-14 03:05N 45°30' E 036°54'0 0.2
2017-Oct-14 02:58N 45°30' E 036°54'0 0.1
2017-Oct-14 02:18N 45°30' E 036°54'0 0.0
2017-Oct-14 01:32N 45°30' E 036°54'0 0.2
2017-Oct-14 01:29N 45°30' E 036°54'0 0.0
2017-Oct-14 00:59N 45°30' E 036°54'0 0.0
2017-Oct-13 23:06N 45°30' E 036°54'0 0.0
2017-Oct-13 23:00N 45°30' E 036°54'0 0.1
2017-Oct-13 22:26N 45°30' E 036°54'0 0.4
2017-Oct-13 21:57N 45°30' E 036°55'3 6.4
2017-Oct-13 21:30N 45°28' E 036°51'4 7.5
2017-Oct-13 20:59N 45°28' E 036°46'3 6.2
2017-Oct-13 20:26N 45°26' E 036°42'3 6.8
2017-Oct-13 19:59N 45°23' E 036°41'3 5.9
2017-Oct-13 19:29N 45°20' E 036°38'3 6.6
2017-Oct-13 18:59N 45°19' E 036°34'4 6.4
2017-Oct-13 18:17N 45°17' E 036°29'2 5.7
2017-Oct-13 17:59N 45°15' E 036°29'2 4.3
2017-Oct-13 17:29N 45°13' E 036°29'2 2.3
2017-Oct-13 16:29N 45°12' E 036°33'0 0.0
2017-Oct-13 15:17N 45°12' E 036°33'0 0.0
2017-Oct-13 14:59N 45°12' E 036°33'0 0.0
2017-Oct-13 14:22N 45°12' E 036°33'0 0.0
2017-Oct-13 13:58N 45°12' E 036°33'0 0.0
2017-Oct-13 13:28N 45°12' E 036°33'0 0.0
2017-Oct-13 12:58N 45°12' E 036°33'0 0.0
2017-Oct-13 12:25N 45°12' E 036°33'0 0.0
2017-Oct-13 11:58N 45°12' E 036°33'0 0.0
2017-Oct-13 11:28N 45°12' E 036°33'0 0.0
2017-Oct-13 10:58N 45°12' E 036°33'0 0.0
2017-Oct-13 10:28N 45°12' E 036°33'0 0.0
2017-Oct-13 09:58N 45°12' E 036°33'0 0.0
2017-Oct-13 09:22N 45°12' E 036°33'0 0.0
2017-Oct-13 08:58N 45°12' E 036°32'0 0.0
2017-Oct-13 08:28N 45°12' E 036°32'0 0.0
2017-Oct-13 07:58N 45°12' E 036°33'0 0.0
2017-Oct-13 07:28N 45°12' E 036°33'0 0.0
2017-Oct-13 06:58N 45°12' E 036°33'0 0.0
2017-Oct-13 06:28N 45°12' E 036°33'0 0.0
2017-Oct-13 05:55N 45°12' E 036°33'0 0.0
2017-Oct-13 05:28N 45°12' E 036°33'0 0.0
2017-Oct-13 04:58N 45°12' E 036°33'0 0.0
2017-Oct-13 04:28N 45°12' E 036°33'0 0.0
2017-Oct-13 03:49N 45°12' E 036°33'0 0.0
2017-Oct-13 03:19N 45°12' E 036°33'0 0.0
2017-Oct-13 02:37N 45°12' E 036°33'0 0.0
2017-Oct-13 02:28N 45°12' E 036°33'0 0.0
2017-Oct-13 01:58N 45°12' E 036°33'0 0.0
2017-Oct-13 01:28N 45°12' E 036°33'0 0.0
2017-Oct-13 00:58N 45°12' E 036°33'0 0.0
2017-Oct-13 00:28N 45°12' E 036°33'0 0.0
2017-Oct-12 23:49N 45°12' E 036°33'0 0.0
2017-Oct-12 23:22N 45°12' E 036°33'0 0.0
2017-Oct-12 22:07N 45°12' E 036°33'0 0.0
2017-Oct-12 21:37N 45°12' E 036°33'0 0.0
2017-Oct-12 21:22N 45°12' E 036°33'0 0.0
2017-Oct-12 20:55N 45°12' E 036°33'0 0.0
2017-Oct-12 20:25N 45°12' E 036°33'0 0.0
2017-Oct-12 19:55N 45°12' E 036°33'0 0.0
2017-Oct-12 19:28N 45°12' E 036°33'0 0.0
2017-Oct-12 18:58N 45°12' E 036°33'0 0.0
2017-Oct-12 18:25N 45°12' E 036°33'0 0.1
2017-Oct-12 17:58N 45°12' E 036°32'0 0.0
2017-Oct-12 17:28N 45°12' E 036°33'0 0.0
2017-Oct-12 16:22N 45°12' E 036°33'0 0.0
2017-Oct-12 15:58N 45°12' E 036°32'0 0.0
2017-Oct-12 15:25N 45°12' E 036°32'0 0.0
2017-Oct-12 14:58N 45°12' E 036°33'0 0.0
2017-Oct-12 14:31N 45°12' E 036°33'0 0.0
2017-Oct-12 13:58N 45°12' E 036°32'0 0.0
2017-Oct-12 13:31N 45°12' E 036°32'0 0.0
2017-Oct-12 12:58N 45°12' E 036°32'0 0.0
2017-Oct-12 12:25N 45°12' E 036°32'0 0.0
2017-Oct-12 11:55N 45°12' E 036°32'0 0.0
2017-Oct-12 11:25N 45°12' E 036°32'0 0.0
2017-Oct-12 10:55N 45°12' E 036°32'0 0.0
2017-Oct-12 10:19N 45°12' E 036°32'0 0.0
2017-Oct-12 09:58N 45°12' E 036°32'0 0.0
2017-Oct-12 09:31N 45°12' E 036°32'0 0.0
2017-Oct-12 08:58N 45°12' E 036°32'0 0.0
2017-Oct-12 08:30N 45°12' E 036°33'0 0.0
2017-Oct-12 08:00N 45°12' E 036°33'0 0.0
2017-Oct-12 07:30N 45°12' E 036°33'0 0.0
2017-Oct-12 07:00N 45°12' E 036°33'0 0.0
2017-Oct-12 06:30N 45°12' E 036°33'0 0.0
2017-Oct-12 06:00N 45°12' E 036°33'0 0.0
2017-Oct-12 05:30N 45°12' E 036°33'0 0.0
2017-Oct-12 05:00N 45°12' E 036°33'0 0.0
2017-Oct-12 04:30N 45°12' E 036°33'0 0.0
2017-Oct-12 04:00N 45°12' E 036°33'0 0.0
2017-Oct-12 03:30N 45°12' E 036°33'0 0.0
2017-Oct-12 03:00N 45°12' E 036°33'0 0.0
2017-Oct-12 02:30N 45°12' E 036°33'0 0.0
2017-Oct-12 02:00N 45°12' E 036°33'0 0.0
2017-Oct-12 01:30N 45°12' E 036°32'0 0.0
2017-Oct-12 00:54N 45°12' E 036°32'0 0.0
2017-Oct-12 00:30N 45°12' E 036°33'0 0.0
2017-Oct-12 00:00N 45°12' E 036°32'0 0.0
2017-Oct-11 23:30N 45°12' E 036°33'0 0.0
2017-Oct-11 22:57N 45°12' E 036°32'0 0.0
2017-Oct-11 22:30N 45°12' E 036°32'0 0.0
2017-Oct-11 22:00N 45°12' E 036°32'0 0.0
2017-Oct-11 21:30N 45°12' E 036°33'0 0.0
2017-Oct-11 20:47N 45°12' E 036°32'0 0.0
2017-Oct-11 20:30N 45°12' E 036°32'0 0.0
2017-Oct-11 20:00N 45°12' E 036°32'0 0.0
2017-Oct-11 19:30N 45°12' E 036°32'0 0.0
2017-Oct-11 19:00N 45°12' E 036°32'0 0.0
2017-Oct-11 18:30N 45°12' E 036°32'0 0.0
2017-Oct-11 18:00N 45°12' E 036°32'0 0.0
2017-Oct-11 17:30N 45°12' E 036°32'0 0.0
2017-Oct-11 17:00N 45°12' E 036°32'6 0.3
2017-Oct-11 00:00N 45°07' E 036°34'0 0.0
2017-Oct-10 23:30N 45°07' E 036°34'0 0.0
2017-Oct-10 22:33N 45°07' E 036°34'0 0.1
2017-Oct-10 22:26N 45°07' E 036°34'0 0.0
2017-Oct-10 21:51N 45°07' E 036°34'0 0.1
2017-Oct-10 21:20N 45°06' E 036°34'0 0.0
2017-Oct-10 21:00N 45°06' E 036°34'0 0.0
2017-Oct-10 20:30N 45°07' E 036°34'0 0.0
2017-Oct-10 19:52N 45°07' E 036°34'0 0.0
2017-Oct-10 19:29N 45°07' E 036°34'0 0.0
2017-Oct-10 19:00N 45°07' E 036°34'0 0.0
2017-Oct-10 18:30N 45°07' E 036°34'0 0.1
2017-Oct-10 18:00N 45°07' E 036°34'1 1.8
2017-Oct-10 17:30N 45°07' E 036°32'4 4.8
2017-Oct-10 16:38N 45°10' E 036°28'2 4.6
2017-Oct-10 16:18N 45°11' E 036°28'1 4.7
2017-Oct-10 16:00N 45°13' E 036°28'2 4.8
2017-Oct-10 15:30N 45°15' E 036°28'2 4.6
2017-Oct-10 15:00N 45°17' E 036°29'6 5.6
2017-Oct-10 14:00N 45°20' E 036°36'3 5.7
2017-Oct-10 13:30N 45°21' E 036°39'3 6.3
2017-Oct-10 13:00N 45°24' E 036°41'3 6.0
2017-Oct-10 12:30N 45°27' E 036°43'3 5.5
2017-Oct-10 12:00N 45°28' E 036°46'3 6.4
2017-Oct-10 11:30N 45°28' E 036°51'2 1.3
2017-Oct-10 09:56N 45°29' E 036°54'0 0.0
2017-Oct-10 09:30N 45°29' E 036°54'0 0.0
2017-Oct-10 07:42N 45°29' E 036°53'0 0.0
2017-Oct-10 07:30N 45°29' E 036°53'0 0.0
2017-Oct-10 07:00N 45°29' E 036°53'0 0.0
2017-Oct-10 06:22N 45°29' E 036°53'0 0.0
2017-Oct-10 05:58N 45°29' E 036°53'0 0.0
2017-Oct-10 05:29N 45°29' E 036°53'0 0.0
2017-Oct-10 04:58N 45°29' E 036°53'0 0.0
2017-Oct-10 04:28N 45°29' E 036°53'0 0.0
2017-Oct-10 03:22N 45°29' E 036°53'0 0.0
2017-Oct-10 03:00N 45°29' E 036°53'0 0.0
2017-Oct-10 02:30N 45°29' E 036°53'0 0.0
2017-Oct-10 00:45N 45°29' E 036°54'0 0.0
2017-Oct-09 16:33N 45°29' E 036°53'0 0.0
2017-Oct-09 14:37N 45°29' E 036°53'0 0.2
2017-Oct-09 14:30N 45°29' E 036°53'0 0.0
2017-Oct-09 13:59N 45°29' E 036°53'0 0.0
2017-Oct-09 12:33N 45°29' E 036°53'0 0.1
2017-Oct-09 12:23N 45°29' E 036°53'0 0.0
2017-Oct-09 11:57N 45°29' E 036°53'0 0.0
2017-Oct-09 11:30N 45°29' E 036°54'0 0.0
2017-Oct-09 09:56N 45°29' E 036°53'0 0.0
2017-Oct-09 09:27N 45°29' E 036°53'0 0.0
2017-Oct-09 09:00N 45°29' E 036°53'0 0.0
2017-Oct-09 04:11N 45°29' E 036°54'0 0.0
2017-Oct-09 03:52N 45°29' E 036°54'0 0.0
2017-Oct-08 20:45N 45°29' E 036°54'0 0.0
2017-Oct-08 12:15N 45°29' E 036°54'0 0.0
2017-Oct-08 10:36N 45°29' E 036°54'0 0.0
2017-Oct-08 10:30N 45°29' E 036°54'0 0.0
2017-Oct-08 09:59N 45°29' E 036°53'0 0.0
2017-Oct-08 08:11N 45°29' E 036°53'0 0.0
2017-Oct-08 07:59N 45°29' E 036°53'0 0.0
2017-Oct-08 06:19N 45°29' E 036°53'0 0.0
2017-Oct-08 04:26N 45°29' E 036°53'0 0.0
2017-Oct-08 04:00N 45°29' E 036°53'0 0.0
2017-Oct-08 03:30N 45°29' E 036°53'0 0.0
2017-Oct-08 02:45N 45°29' E 036°53'0 0.0
2017-Oct-08 02:26N 45°29' E 036°53'0 0.0
2017-Oct-08 00:09N 45°29' E 036°53'0 0.0
2017-Oct-07 23:45N 45°29' E 036°53'0 0.0
2017-Oct-07 23:27N 45°29' E 036°53'0 0.0
2017-Oct-07 22:39N 45°29' E 036°53'0 0.0
2017-Oct-07 22:29N 45°29' E 036°53'0 0.0
2017-Oct-07 21:35N 45°29' E 036°53'0 0.0
2017-Oct-07 21:28N 45°29' E 036°53'0 0.0
2017-Oct-07 17:13N 45°29' E 036°53'0 0.0
2017-Oct-07 16:59N 45°29' E 036°53'0 0.0
2017-Oct-07 16:14N 45°29' E 036°53'0 0.0
2017-Oct-07 14:55N 45°29' E 036°53'0 0.0
2017-Oct-07 14:26N 45°29' E 036°53'0 0.0
2017-Oct-07 13:57N 45°29' E 036°53'0 0.1
2017-Oct-07 13:30N 45°29' E 036°53'0 0.0
2017-Oct-07 12:58N 45°29' E 036°53'0 0.0
2017-Oct-07 12:30N 45°29' E 036°53'0 0.1
2017-Oct-07 11:34N 45°29' E 036°54'0 0.0
2017-Oct-07 10:45N 45°29' E 036°53'0 0.0
2017-Oct-07 10:28N 45°29' E 036°54'0 0.0
2017-Oct-07 09:40N 45°29' E 036°53'0 0.0
2017-Oct-07 09:24N 45°29' E 036°53'0 0.0
2017-Oct-07 08:58N 45°29' E 036°53'0 0.0
2017-Oct-07 08:30N 45°29' E 036°53'0 0.0
2017-Oct-07 07:57N 45°29' E 036°53'0 0.0
2017-Oct-07 06:21N 45°29' E 036°54'0 0.0
2017-Oct-07 05:39N 45°29' E 036°54'0 0.0
2017-Oct-07 04:36N 45°29' E 036°54'0 0.1
2017-Oct-07 04:30N 45°29' E 036°54'0 0.0
2017-Oct-07 04:00N 45°29' E 036°54'0 0.0
2017-Oct-06 13:58N 45°29' E 036°54'0 0.0
2017-Oct-06 13:27N 45°29' E 036°54'  
Track history (hours):
 
Tides and Currents Weather Stations Pressure Air Temp Water Temp Dewpoint Dewpoint Depression Visibility Wind Speed Wind Dir Waves Ship Positions

Volgoneft-212

Last reported at 2017-Oct-14 04:32 UTC. Time now 2017-Oct-18 03:45 UTC.
Position N 45°33' E 036°53'.

Length 136 m; draft 2.6 m.

Type: Pilot. MMSI: 273333930.

Date/timePositionNaut miles runAvg speedWind from/ knotsBaromVisibWave heightAir tempDewpointWater temp
2017-Oct-14 04:32N 45°33' E 036°53'2 5.1
2017-Oct-14 04:06N 45°31' E 036°54'1 0.6
2017-Oct-14 03:05N 45°30' E 036°54'0 0.2
2017-Oct-14 02:58N 45°30' E 036°54'0 0.1
2017-Oct-14 02:18N 45°30' E 036°54'0 0.0
2017-Oct-14 01:32N 45°30' E 036°54'0 0.2
2017-Oct-14 01:29N 45°30' E 036°54'0 0.0
2017-Oct-14 00:59N 45°30' E 036°54'0 0.0
2017-Oct-13 23:06N 45°30' E 036°54'0 0.0
2017-Oct-13 23:00N 45°30' E 036°54'0 0.1
2017-Oct-13 22:26N 45°30' E 036°54'0 0.4
2017-Oct-13 21:57N 45°30' E 036°55'3 6.4
2017-Oct-13 21:30N 45°28' E 036°51'4 7.5
2017-Oct-13 20:59N 45°28' E 036°46'3 6.2
2017-Oct-13 20:26N 45°26' E 036°42'3 6.8
2017-Oct-13 19:59N 45°23' E 036°41'3 5.9
2017-Oct-13 19:29N 45°20' E 036°38'3 6.6
2017-Oct-13 18:59N 45°19' E 036°34'4 6.4
2017-Oct-13 18:17N 45°17' E 036°29'2 5.7
2017-Oct-13 17:59N 45°15' E 036°29'2 4.3
2017-Oct-13 17:29N 45°13' E 036°29'2 2.3
2017-Oct-13 16:29N 45°12' E 036°33'0 0.0
2017-Oct-13 15:17N 45°12' E 036°33'0 0.0
2017-Oct-13 14:59N 45°12' E 036°33'0 0.0
2017-Oct-13 14:22N 45°12' E 036°33'0 0.0
2017-Oct-13 13:58N 45°12' E 036°33'0 0.0
2017-Oct-13 13:28N 45°12' E 036°33'0 0.0
2017-Oct-13 12:58N 45°12' E 036°33'0 0.0
2017-Oct-13 12:25N 45°12' E 036°33'0 0.0
2017-Oct-13 11:58N 45°12' E 036°33'0 0.0
2017-Oct-13 11:28N 45°12' E 036°33'0 0.0
2017-Oct-13 10:58N 45°12' E 036°33'0 0.0
2017-Oct-13 10:28N 45°12' E 036°33'0 0.0
2017-Oct-13 09:58N 45°12' E 036°33'0 0.0
2017-Oct-13 09:22N 45°12' E 036°33'0 0.0
2017-Oct-13 08:58N 45°12' E 036°32'0 0.0
2017-Oct-13 08:28N 45°12' E 036°32'0 0.0
2017-Oct-13 07:58N 45°12' E 036°33'0 0.0
2017-Oct-13 07:28N 45°12' E 036°33'0 0.0
2017-Oct-13 06:58N 45°12' E 036°33'0 0.0
2017-Oct-13 06:28N 45°12' E 036°33'0 0.0
2017-Oct-13 05:55N 45°12' E 036°33'0 0.0
2017-Oct-13 05:28N 45°12' E 036°33'0 0.0
2017-Oct-13 04:58N 45°12' E 036°33'0 0.0
2017-Oct-13 04:28N 45°12' E 036°33'0 0.0
2017-Oct-13 03:49N 45°12' E 036°33'0 0.0
2017-Oct-13 03:19N 45°12' E 036°33'0 0.0
2017-Oct-13 02:37N 45°12' E 036°33'0 0.0
2017-Oct-13 02:28N 45°12' E 036°33'0 0.0
2017-Oct-13 01:58N 45°12' E 036°33'0 0.0
2017-Oct-13 01:28N 45°12' E 036°33'0 0.0
2017-Oct-13 00:58N 45°12' E 036°33'0 0.0
2017-Oct-13 00:28N 45°12' E 036°33'0 0.0
2017-Oct-12 23:49N 45°12' E 036°33'0 0.0
2017-Oct-12 23:22N 45°12' E 036°33'0 0.0
2017-Oct-12 22:07N 45°12' E 036°33'0 0.0
2017-Oct-12 21:37N 45°12' E 036°33'0 0.0
2017-Oct-12 21:22N 45°12' E 036°33'0 0.0
2017-Oct-12 20:55N 45°12' E 036°33'0 0.0
2017-Oct-12 20:25N 45°12' E 036°33'0 0.0
2017-Oct-12 19:55N 45°12' E 036°33'0 0.0
2017-Oct-12 19:28N 45°12' E 036°33'0 0.0
2017-Oct-12 18:58N 45°12' E 036°33'0 0.0
2017-Oct-12 18:25N 45°12' E 036°33'0 0.1
2017-Oct-12 17:58N 45°12' E 036°32'0 0.0
2017-Oct-12 17:28N 45°12' E 036°33'0 0.0
2017-Oct-12 16:22N 45°12' E 036°33'0 0.0
2017-Oct-12 15:58N 45°12' E 036°32'0 0.0
2017-Oct-12 15:25N 45°12' E 036°32'0 0.0
2017-Oct-12 14:58N 45°12' E 036°33'0 0.0
2017-Oct-12 14:31N 45°12' E 036°33'0 0.0
2017-Oct-12 13:58N 45°12' E 036°32'0 0.0
2017-Oct-12 13:31N 45°12' E 036°32'0 0.0
2017-Oct-12 12:58N 45°12' E 036°32'0 0.0
2017-Oct-12 12:25N 45°12' E 036°32'0 0.0
2017-Oct-12 11:55N 45°12' E 036°32'0 0.0
2017-Oct-12 11:25N 45°12' E 036°32'0 0.0
2017-Oct-12 10:55N 45°12' E 036°32'0 0.0
2017-Oct-12 10:19N 45°12' E 036°32'0 0.0
2017-Oct-12 09:58N 45°12' E 036°32'0 0.0
2017-Oct-12 09:31N 45°12' E 036°32'0 0.0
2017-Oct-12 08:58N 45°12' E 036°32'0 0.0
2017-Oct-12 08:30N 45°12' E 036°33'0 0.0
2017-Oct-12 08:00N 45°12' E 036°33'0 0.0
2017-Oct-12 07:30N 45°12' E 036°33'0 0.0
2017-Oct-12 07:00N 45°12' E 036°33'0 0.0
2017-Oct-12 06:30N 45°12' E 036°33'0 0.0
2017-Oct-12 06:00N 45°12' E 036°33'0 0.0
2017-Oct-12 05:30N 45°12' E 036°33'0 0.0
2017-Oct-12 05:00N 45°12' E 036°33'0 0.0
2017-Oct-12 04:30N 45°12' E 036°33'0 0.0
2017-Oct-12 04:00N 45°12' E 036°33'0 0.0
2017-Oct-12 03:30N 45°12' E 036°33'0 0.0
2017-Oct-12 03:00N 45°12' E 036°33'0 0.0
2017-Oct-12 02:30N 45°12' E 036°33'0 0.0
2017-Oct-12 02:00N 45°12' E 036°33'0 0.0
2017-Oct-12 01:30N 45°12' E 036°32'0 0.0
2017-Oct-12 00:54N 45°12' E 036°32'0 0.0
2017-Oct-12 00:30N 45°12' E 036°33'0 0.0
2017-Oct-12 00:00N 45°12' E 036°32'0 0.0
2017-Oct-11 23:30N 45°12' E 036°33'0 0.0
2017-Oct-11 22:57N 45°12' E 036°32'0 0.0
2017-Oct-11 22:30N 45°12' E 036°32'0 0.0
2017-Oct-11 22:00N 45°12' E 036°32'0 0.0
2017-Oct-11 21:30N 45°12' E 036°33'0 0.0
2017-Oct-11 20:47N 45°12' E 036°32'0 0.0
2017-Oct-11 20:30N 45°12' E 036°32'0 0.0
2017-Oct-11 20:00N 45°12' E 036°32'0 0.0
2017-Oct-11 19:30N 45°12' E 036°32'0 0.0
2017-Oct-11 19:00N 45°12' E 036°32'0 0.0
2017-Oct-11 18:30N 45°12' E 036°32'0 0.0
2017-Oct-11 18:00N 45°12' E 036°32'0 0.0
2017-Oct-11 17:30N 45°12' E 036°32'0 0.0
2017-Oct-11 17:00N 45°12' E 036°32'6 0.3
2017-Oct-11 00:00N 45°07' E 036°34'0 0.0
2017-Oct-10 23:30N 45°07' E 036°34'0 0.0
2017-Oct-10 22:33N 45°07' E 036°34'0 0.1
2017-Oct-10 22:26N 45°07' E 036°34'0 0.0
2017-Oct-10 21:51N 45°07' E 036°34'0 0.1
2017-Oct-10 21:20N 45°06' E 036°34'0 0.0
2017-Oct-10 21:00N 45°06' E 036°34'0 0.0
2017-Oct-10 20:30N 45°07' E 036°34'0 0.0
2017-Oct-10 19:52N 45°07' E 036°34'0 0.0
2017-Oct-10 19:29N 45°07' E 036°34'0 0.0
2017-Oct-10 19:00N 45°07' E 036°34'0 0.0
2017-Oct-10 18:30N 45°07' E 036°34'0 0.1
2017-Oct-10 18:00N 45°07' E 036°34'1 1.8
2017-Oct-10 17:30N 45°07' E 036°32'4 4.8
2017-Oct-10 16:38N 45°10' E 036°28'2 4.6
2017-Oct-10 16:18N 45°11' E 036°28'1 4.7
2017-Oct-10 16:00N 45°13' E 036°28'2 4.8
2017-Oct-10 15:30N 45°15' E 036°28'2 4.6
2017-Oct-10 15:00N 45°17' E 036°29'6 5.6
2017-Oct-10 14:00N 45°20' E 036°36'3 5.7
2017-Oct-10 13:30N 45°21' E 036°39'3 6.3
2017-Oct-10 13:00N 45°24' E 036°41'3 6.0
2017-Oct-10 12:30N 45°27' E 036°43'3 5.5
2017-Oct-10 12:00N 45°28' E 036°46'3 6.4
2017-Oct-10 11:30N 45°28' E 036°51'2 1.3
2017-Oct-10 09:56N 45°29' E 036°54'0 0.0
2017-Oct-10 09:30N 45°29' E 036°54'0 0.0
2017-Oct-10 07:42N 45°29' E 036°53'0 0.0
2017-Oct-10 07:30N 45°29' E 036°53'0 0.0
2017-Oct-10 07:00N 45°29' E 036°53'0 0.0
2017-Oct-10 06:22N 45°29' E 036°53'0 0.0
2017-Oct-10 05:58N 45°29' E 036°53'0 0.0
2017-Oct-10 05:29N 45°29' E 036°53'0 0.0
2017-Oct-10 04:58N 45°29' E 036°53'0 0.0
2017-Oct-10 04:28N 45°29' E 036°53'0 0.0
2017-Oct-10 03:22N 45°29' E 036°53'0 0.0
2017-Oct-10 03:00N 45°29' E 036°53'0 0.0
2017-Oct-10 02:30N 45°29' E 036°53'0 0.0
2017-Oct-10 00:45N 45°29' E 036°54'0 0.0
2017-Oct-09 16:33N 45°29' E 036°53'0 0.0
2017-Oct-09 14:37N 45°29' E 036°53'0 0.2
2017-Oct-09 14:30N 45°29' E 036°53'0 0.0
2017-Oct-09 13:59N 45°29' E 036°53'0 0.0
2017-Oct-09 12:33N 45°29' E 036°53'0 0.1
2017-Oct-09 12:23N 45°29' E 036°53'0 0.0
2017-Oct-09 11:57N 45°29' E 036°53'0 0.0
2017-Oct-09 11:30N 45°29' E 036°54'0 0.0
2017-Oct-09 09:56N 45°29' E 036°53'0 0.0
2017-Oct-09 09:27N 45°29' E 036°53'0 0.0
2017-Oct-09 09:00N 45°29' E 036°53'0 0.0
2017-Oct-09 04:11N 45°29' E 036°54'0 0.0
2017-Oct-09 03:52N 45°29' E 036°54'0 0.0
2017-Oct-08 20:45N 45°29' E 036°54'0 0.0
2017-Oct-08 12:15N 45°29' E 036°54'0 0.0
2017-Oct-08 10:36N 45°29' E 036°54'0 0.0
2017-Oct-08 10:30N 45°29' E 036°54'0 0.0
2017-Oct-08 09:59N 45°29' E 036°53'0 0.0
2017-Oct-08 08:11N 45°29' E 036°53'0 0.0
2017-Oct-08 07:59N 45°29' E 036°53'0 0.0
2017-Oct-08 06:19N 45°29' E 036°53'0 0.0
2017-Oct-08 04:26N 45°29' E 036°53'0 0.0
2017-Oct-08 04:00N 45°29' E 036°53'0 0.0
2017-Oct-08 03:30N 45°29' E 036°53'0 0.0
2017-Oct-08 02:45N 45°29' E 036°53'0 0.0
2017-Oct-08 02:26N 45°29' E 036°53'0 0.0
2017-Oct-08 00:09N 45°29' E 036°53'0 0.0
2017-Oct-07 23:45N 45°29' E 036°53'0 0.0
2017-Oct-07 23:27N 45°29' E 036°53'0 0.0
2017-Oct-07 22:39N 45°29' E 036°53'0 0.0
2017-Oct-07 22:29N 45°29' E 036°53'0 0.0
2017-Oct-07 21:35N 45°29' E 036°53'0 0.0
2017-Oct-07 21:28N 45°29' E 036°53'0 0.0
2017-Oct-07 17:13N 45°29' E 036°53'0 0.0
2017-Oct-07 16:59N 45°29' E 036°53'0 0.0
2017-Oct-07 16:14N 45°29' E 036°53'0 0.0
2017-Oct-07 14:55N 45°29' E 036°53'0 0.0
2017-Oct-07 14:26N 45°29' E 036°53'0 0.0
2017-Oct-07 13:57N 45°29' E 036°53'0 0.1
2017-Oct-07 13:30N 45°29' E 036°53'0 0.0
2017-Oct-07 12:58N 45°29' E 036°53'0 0.0
2017-Oct-07 12:30N 45°29' E 036°53'0 0.1
2017-Oct-07 11:34N 45°29' E 036°54'0 0.0
2017-Oct-07 10:45N 45°29' E 036°53'0 0.0
2017-Oct-07 10:28N 45°29' E 036°54'0 0.0
2017-Oct-07 09:40N 45°29' E 036°53'0 0.0
2017-Oct-07 09:24N 45°29' E 036°53'0 0.0
2017-Oct-07 08:58N 45°29' E 036°53'0 0.0
2017-Oct-07 08:30N 45°29' E 036°53'0 0.0
2017-Oct-07 07:57N 45°29' E 036°53'0 0.0
2017-Oct-07 06:21N 45°29' E 036°54'0 0.0
2017-Oct-07 05:39N 45°29' E 036°54'0 0.0
2017-Oct-07 04:36N 45°29' E 036°54'0 0.1
2017-Oct-07 04:30N 45°29' E 036°54'0 0.0
2017-Oct-07 04:00N 45°29' E 036°54'0 0.0
2017-Oct-06 13:58N 45°29' E 036°54'0 0.0
2017-Oct-06 13:27N 45°29' E 036°54'  

Dump ship's entire track history